Time;durP1;ratioP1;P1;durP2;ratioP2;P2;SDS_P1;SDS_P2;PMS_P1;PMS_P2;Temp;Humidity;BMP_temperature;BMP_pressure;BME280_temperature;BME280_humidity;BME280_pressure;Samples;Min_cycle;Max_cycle;Signal;HPM_P1;HPM_P2
2023/06/18 00:00:50;;;;;;;8.80;7.90;;;;;;;20.74;45.29;99148.28;4951612;29;20492;-78
2023/06/18 00:03:16;;;;;;;9.57;8.67;;;;;;;20.78;45.13;99146.91;4953959;29;20476;-77
2023/06/18 00:05:41;;;;;;;9.45;8.65;;;;;;;20.83;45.12;99143.75;4953646;29;20457;-78
2023/06/18 00:08:07;;;;;;;9.20;8.33;;;;;;;20.86;45.32;99143.38;4951896;29;20225;-79
2023/06/18 00:10:32;;;;;;;11.17;8.20;;;;;;;20.82;45.40;99148.25;4953924;29;20219;-77
2023/06/18 00:12:57;;;;;;;13.73;8.60;;;;;;;20.70;45.33;99150.47;4954141;29;20279;-77
2023/06/18 00:15:23;;;;;;;10.03;8.60;;;;;;;20.58;45.58;99146.53;4954508;29;20212;-79
2023/06/18 00:17:48;;;;;;;9.73;8.83;;;;;;;20.42;45.94;99134.03;4958657;29;20256;-78
2023/06/18 00:20:14;;;;;;;9.00;8.20;;;;;;;20.30;46.19;99138.91;4954648;29;20234;-77
2023/06/18 00:22:39;;;;;;;9.97;8.80;;;;;;;20.18;46.68;99134.13;4956231;29;20218;-79
2023/06/18 00:25:06;;;;;;;9.77;8.90;;;;;;;20.05;47.10;99146.13;4955896;29;20225;-77
2023/06/18 00:27:31;;;;;;;9.10;8.20;;;;;;;19.98;47.27;99144.31;4956228;29;20222;-77
2023/06/18 00:29:56;;;;;;;9.40;8.50;;;;;;;19.91;47.28;99148.69;4956750;28;20479;-77
2023/06/18 00:32:24;;;;;;;9.10;8.30;;;;;;;19.84;47.36;99154.66;4948139;28;20327;-77
2023/06/18 00:34:53;;;;;;;9.33;8.40;;;;;;;19.78;47.59;99146.53;4972059;28;20204;-77
2023/06/18 00:37:20;;;;;;;10.07;9.17;;;;;;;19.73;47.70;99148.84;4973981;28;20471;-77
2023/06/18 00:39:46;;;;;;;9.60;8.70;;;;;;;19.67;47.77;99153.03;4971882;28;20491;-77
2023/06/18 00:42:12;;;;;;;9.23;8.40;;;;;;;19.63;47.80;99163.16;4957691;28;20467;-79
2023/06/18 00:44:41;;;;;;;9.23;8.30;;;;;;;19.57;47.90;99155.81;4974159;28;20545;-77
2023/06/18 00:47:12;;;;;;;9.77;8.77;;;;;;;19.50;48.10;99162.00;4975736;28;20240;-79
2023/06/18 00:49:41;;;;;;;10.77;8.80;;;;;;;19.44;48.16;99163.47;4974680;28;20534;-77
2023/06/18 00:52:12;;;;;;;10.03;9.17;;;;;;;19.44;47.71;99161.66;4974381;28;21022;-77
2023/06/18 00:54:39;;;;;;;12.50;8.63;;;;;;;19.49;47.98;99157.66;4975932;28;20505;-77
2023/06/18 00:57:08;;;;;;;8.80;7.93;;;;;;;19.55;47.90;99165.81;4973502;28;20461;-77
2023/06/18 00:59:37;;;;;;;8.57;7.70;;;;;;;19.60;47.80;99152.81;4959908;28;20486;-79
2023/06/18 01:02:03;;;;;;;9.80;8.83;;;;;;;19.65;47.61;99166.47;4973956;28;20447;-78
2023/06/18 01:04:32;;;;;;;8.80;8.00;;;;;;;19.69;47.51;99159.03;4977311;28;20556;-78
2023/06/18 01:06:59;;;;;;;10.93;9.83;;;;;;;19.72;47.67;99160.53;4975621;28;20446;-79
2023/06/18 01:09:26;;;;;;;9.80;8.80;;;;;;;19.76;47.64;99152.00;4975061;28;20469;-77
2023/06/18 01:11:53;;;;;;;9.83;9.03;;;;;;;19.78;47.21;99144.69;4974414;28;20483;-77
2023/06/18 01:14:21;;;;;;;9.67;8.70;;;;;;;19.84;47.19;99153.84;4958293;28;20469;-79
2023/06/18 01:16:49;;;;;;;10.33;9.17;;;;;;;19.86;47.23;99155.34;4957400;28;21058;-77
2023/06/18 01:19:40;;;;;;;8.77;7.77;;;;;;;19.92;47.15;99145.00;4952756;28;20473;-79
2023/06/18 01:22:18;;;;;;;10.63;9.53;;;;;;;19.94;46.94;99149.16;4953194;28;20921;-79
2023/06/18 01:24:51;;;;;;;9.57;8.57;;;;;;;19.92;47.11;99145.81;4957729;28;20502;-78
2023/06/18 01:27:21;;;;;;;9.93;8.90;;;;;;;19.93;47.33;99142.19;4973768;28;20735;-79
2023/06/18 01:29:57;;;;;;;10.77;9.43;;;;;;;19.94;47.34;99151.81;4974372;28;20514;-79
2023/06/18 01:32:23;;;;;;;10.50;9.50;;;;;;;19.93;47.33;99155.50;4957181;28;20568;-77
2023/06/18 01:34:48;;;;;;;11.10;10.00;;;;;;;19.92;47.36;99153.00;4958022;28;20474;-79
2023/06/18 01:37:20;;;;;;;11.37;9.03;;;;;;;19.91;47.61;99146.00;4958607;28;20246;-77
2023/06/18 01:39:59;;;;;;;14.27;9.33;;;;;;;19.91;47.57;99143.34;4957527;28;20258;-77
2023/06/18 01:42:33;;;;;;;11.30;9.93;;;;;;;19.84;47.59;99138.66;4973881;28;20544;-77
2023/06/18 01:45:07;;;;;;;8.97;8.13;;;;;;;19.79;47.82;99135.66;4973239;28;20479;-77
2023/06/18 01:47:33;;;;;;;10.23;9.33;;;;;;;19.77;47.84;99142.19;4973645;28;20484;-79
2023/06/18 01:50:01;;;;;;;10.37;8.73;;;;;;;19.78;47.82;99146.53;4973495;28;20853;-79
2023/06/18 01:52:30;;;;;;;11.17;10.23;;;;;;;19.77;47.96;99137.69;4956560;28;20475;-78
2023/06/18 01:54:59;;;;;;;10.07;8.80;;;;;;;19.74;47.84;99153.16;4973476;28;20586;-77
2023/06/18 01:57:25;;;;;;;9.87;8.90;;;;;;;19.71;48.14;99153.50;4974144;28;20479;-78
2023/06/18 01:59:51;;;;;;;10.40;9.50;;;;;;;19.64;48.16;99148.81;4955576;28;20540;-79
2023/06/18 02:02:16;;;;;;;13.20;9.90;;;;;;;19.59;48.55;99145.81;4953830;28;20537;-79
2023/06/18 02:04:43;;;;;;;9.80;9.00;;;;;;;19.53;48.68;99151.81;4972455;28;20739;-77
2023/06/18 02:07:11;;;;;;;10.70;9.60;;;;;;;19.45;48.65;99154.50;4956196;28;20399;-79
2023/06/18 02:09:36;;;;;;;11.77;9.30;;;;;;;19.38;49.11;99148.97;4948237;28;20466;-79
2023/06/18 02:12:02;;;;;;;10.57;9.57;;;;;;;19.33;49.43;99150.47;4952672;28;20823;-77
2023/06/18 02:14:28;;;;;;;13.30;10.57;;;;;;;19.29;49.34;99155.31;4957751;28;20214;-79
2023/06/18 02:16:55;;;;;;;10.43;9.37;;;;;;;19.23;49.84;99156.78;4956588;28;20456;-78
2023/06/18 02:19:21;;;;;;;10.97;9.87;;;;;;;19.13;49.85;99161.44;4972913;28;20228;-79
2023/06/18 02:21:46;;;;;;;11.33;10.23;;;;;;;18.98;50.67;99169.22;4973204;28;20489;-77
2023/06/18 02:24:15;;;;;;;11.53;10.37;;;;;;;18.87;50.99;99166.00;4970929;28;20543;-79
2023/06/18 02:26:40;;;;;;;10.97;10.03;;;;;;;18.74;51.24;99167.31;4958469;28;20514;-78
2023/06/18 02:29:06;;;;;;;9.83;8.93;;;;;;;18.63;51.58;99172.03;4971771;28;20633;-78
2023/06/18 02:31:31;;;;;;;12.33;9.70;;;;;;;18.57;51.89;99165.53;4975113;28;20878;-77
2023/06/18 02:34:00;;;;;;;10.03;9.13;;;;;;;18.54;51.98;99176.50;4956760;28;20234;-77
2023/06/18 02:36:26;;;;;;;12.90;9.30;;;;;;;18.55;51.57;99173.69;4973717;28;21009;-78
2023/06/18 02:38:52;;;;;;;11.13;9.57;;;;;;;18.52;51.76;99167.84;4974050;28;20236;-77
2023/06/18 02:41:21;;;;;;;11.83;9.97;;;;;;;18.44;51.86;99167.81;4949791;28;20469;-77
2023/06/18 02:43:50;;;;;;;10.77;9.80;;;;;;;18.41;52.07;99165.47;4956451;28;20480;-79
2023/06/18 02:46:17;;;;;;;21.03;10.43;;;;;;;18.40;52.28;99171.78;4957421;28;20466;-77
2023/06/18 02:48:43;;;;;;;11.47;10.37;;;;;;;18.43;51.81;99168.81;4973245;28;20745;-77
2023/06/18 02:51:10;;;;;;;10.50;9.50;;;;;;;18.42;52.26;99160.00;4974324;28;20544;-77
2023/06/18 02:53:35;;;;;;;9.80;8.90;;;;;;;18.40;52.16;99161.16;4956449;28;20215;-77
2023/06/18 02:56:01;;;;;;;10.97;9.87;;;;;;;18.39;52.29;99162.13;4974460;28;20521;-79
2023/06/18 02:58:29;;;;;;;11.17;9.87;;;;;;;18.38;52.31;99157.81;4953829;28;20234;-79
2023/06/18 03:00:59;;;;;;;10.47;9.57;;;;;;;18.35;52.50;99167.75;4957184;28;20229;-78
2023/06/18 03:03:25;;;;;;;12.43;10.27;;;;;;;18.28;52.49;99161.44;4952896;28;20528;-77
2023/06/18 03:05:53;;;;;;;12.87;11.57;;;;;;;18.18;53.00;99167.84;4973311;28;20435;-77
2023/06/18 03:08:20;;;;;;;10.67;9.30;;;;;;;18.05;53.44;99162.94;4957164;28;20477;-79
2023/06/18 03:10:49;;;;;;;11.10;10.00;;;;;;;17.96;53.80;99167.38;4950302;28;20422;-77
2023/06/18 03:13:15;;;;;;;10.27;9.20;;;;;;;17.96;53.96;99162.06;4957438;28;20529;-79
2023/06/18 03:15:44;;;;;;;10.33;9.33;;;;;;;17.97;53.95;99166.38;4953090;28;20213;-77
2023/06/18 03:18:11;;;;;;;10.40;9.47;;;;;;;17.95;54.10;99171.00;4944793;28;20874;-79
2023/06/18 03:20:37;;;;;;;11.50;10.40;;;;;;;17.96;53.98;99166.50;4951131;28;20534;-79
2023/06/18 03:23:03;;;;;;;11.13;10.13;;;;;;;17.96;53.89;99167.38;4950080;28;20223;-81
2023/06/18 03:25:28;;;;;;;11.83;10.47;;;;;;;17.91;54.28;99169.66;4966965;28;20222;-79
2023/06/18 03:27:54;;;;;;;11.80;10.70;;;;;;;17.89;54.31;99171.63;4963497;28;20322;-79
2023/06/18 03:30:22;;;;;;;9.50;8.63;;;;;;;17.90;54.66;99173.28;4947964;28;20234;-79
2023/06/18 03:32:48;;;;;;;11.23;9.90;;;;;;;17.92;54.56;99174.81;4948408;28;20460;-78
2023/06/18 03:35:13;;;;;;;11.05;9.95;;;;;;;17.97;54.32;99171.69;4967823;28;20454;-76
2023/06/18 03:37:40;;;;;;;10.90;9.80;;;;;;;17.97;54.39;99168.19;4949995;28;20219;-78
2023/06/18 03:40:06;;;;;;;11.00;9.90;;;;;;;17.95;54.21;99171.00;4972334;28;20580;-79
2023/06/18 03:42:33;;;;;;;12.87;11.60;;;;;;;17.97;54.14;99173.53;4951610;28;20842;-78
2023/06/18 03:44:58;;;;;;;11.53;10.13;;;;;;;17.99;54.17;99176.88;4971157;28;20464;-77
2023/06/18 03:47:25;;;;;;;11.00;9.73;;;;;;;17.99;54.03;99175.03;4954965;28;20207;-78
2023/06/18 03:49:50;;;;;;;12.30;10.67;;;;;;;17.99;54.10;99179.53;4956145;28;20455;-78
2023/06/18 03:52:16;;;;;;;10.30;9.30;;;;;;;17.89;54.23;99177.78;4954250;28;20211;-78
2023/06/18 03:54:41;;;;;;;11.40;9.40;;;;;;;17.77;54.72;99179.00;4949042;28;20631;-79
2023/06/18 03:57:08;;;;;;;11.43;10.30;;;;;;;17.64;55.20;99176.72;4971285;28;20219;-77
2023/06/18 03:59:33;;;;;;;9.60;8.57;;;;;;;17.56;55.30;99179.31;4944575;28;20835;-79
2023/06/18 04:02:00;;;;;;;11.50;10.47;;;;;;;17.49;55.41;99178.25;4954148;28;20532;-76
2023/06/18 04:04:26;;;;;;;10.43;9.47;;;;;;;17.46;55.48;99174.06;4956161;28;20517;-77
2023/06/18 04:06:51;;;;;;;11.23;9.90;;;;;;;17.48;55.55;99172.09;4954678;28;20231;-77
2023/06/18 04:09:17;;;;;;;10.60;9.60;;;;;;;17.51;55.48;99172.78;4954313;28;20225;-77
2023/06/18 04:11:42;;;;;;;11.23;10.07;;;;;;;17.49;55.67;99172.94;4948141;28;20230;-77
2023/06/18 04:14:09;;;;;;;13.30;10.47;;;;;;;17.44;55.86;99165.44;4953928;28;20212;-79
2023/06/18 04:16:35;;;;;;;12.03;10.87;;;;;;;17.36;56.05;99162.72;4970843;28;20484;-78
2023/06/18 04:19:01;;;;;;;12.10;10.63;;;;;;;17.32;56.06;99173.78;4959611;28;20600;-77
2023/06/18 04:21:27;;;;;;;11.73;10.53;;;;;;;17.27;56.33;99163.59;4959482;28;20471;-77
2023/06/18 04:23:54;;;;;;;10.97;10.07;;;;;;;17.23;56.63;99163.09;4956888;28;20470;-79
2023/06/18 04:26:21;;;;;;;11.50;10.40;;;;;;;17.23;56.72;99159.59;4958779;28;20488;-78
2023/06/18 04:28:47;;;;;;;11.47;10.37;;;;;;;17.28;56.60;99153.81;4957385;28;20839;-78
2023/06/18 04:31:12;;;;;;;12.73;10.67;;;;;;;17.36;56.31;99148.59;4972800;28;20486;-76
2023/06/18 04:33:38;;;;;;;12.20;9.67;;;;;;;17.46;56.00;99157.31;4957316;28;20219;-78
2023/06/18 04:36:04;;;;;;;10.20;9.10;;;;;;;17.56;55.82;99159.91;4958360;28;20559;-77
2023/06/18 04:38:31;;;;;;;12.33;11.03;;;;;;;17.67;55.68;99157.00;4957744;28;20243;-79
2023/06/18 04:40:57;;;;;;;11.33;9.67;;;;;;;17.78;55.41;99159.41;4972278;28;20480;-77
2023/06/18 04:43:22;;;;;;;12.13;9.37;;;;;;;17.88;55.08;99160.19;4957917;28;20329;-77
2023/06/18 04:45:48;;;;;;;11.27;10.03;;;;;;;17.99;54.97;99159.09;4975735;28;20218;-77
2023/06/18 04:48:17;;;;;;;11.97;10.77;;;;;;;18.18;54.48;99160.69;4957419;28;20298;-77
2023/06/18 04:50:43;;;;;;;11.27;10.07;;;;;;;18.43;53.97;99161.66;4957367;28;20762;-78
2023/06/18 04:53:08;;;;;;;11.40;10.40;;;;;;;18.85;52.81;99154.69;4943745;28;20467;-78
2023/06/18 04:55:34;;;;;;;14.93;9.80;;;;;;;19.33;51.50;99150.47;4959498;28;20279;-79
2023/06/18 04:58:00;;;;;;;10.10;8.87;;;;;;;19.81;50.32;99157.66;4975258;28;20220;-77
2023/06/18 05:00:27;;;;;;;9.40;8.50;;;;;;;20.24;49.11;99149.44;4953484;28;20218;-78
2023/06/18 05:02:54;;;;;;;9.17;8.27;;;;;;;20.60;48.38;99151.66;4956981;28;20472;-78
2023/06/18 05:05:20;;;;;;;10.97;9.87;;;;;;;20.94;47.50;99144.16;4975035;28;20461;-77
2023/06/18 05:07:48;;;;;;;11.43;9.57;;;;;;;21.30;46.54;99143.59;4956582;28;20234;-79
2023/06/18 05:10:13;;;;;;;10.57;9.23;;;;;;;21.65;45.99;99144.84;4972910;28;20441;-79
2023/06/18 05:12:40;;;;;;;10.43;9.27;;;;;;;21.95;45.40;99141.41;4957135;28;20209;-79
2023/06/18 05:15:07;;;;;;;10.70;9.70;;;;;;;22.16;45.27;99133.50;4957188;28;20449;-79
2023/06/18 05:17:34;;;;;;;9.90;9.00;;;;;;;22.32;44.80;99132.53;4957406;28;20238;-77
2023/06/18 05:20:04;;;;;;;10.90;9.77;;;;;;;22.38;44.50;99128.28;4948361;28;20493;-79
2023/06/18 05:22:30;;;;;;;10.47;9.50;;;;;;;22.39;44.73;99130.78;4972567;28;20838;-77
2023/06/18 05:24:59;;;;;;;11.23;10.20;;;;;;;22.40;44.50;99134.28;4952382;28;20890;-78
2023/06/18 05:27:28;;;;;;;10.00;9.03;;;;;;;22.47;44.02;99133.34;4955467;28;20616;-79
2023/06/18 05:29:54;;;;;;;11.80;10.10;;;;;;;22.63;43.85;99135.00;4954102;28;20451;-80
2023/06/18 05:32:19;;;;;;;10.43;8.53;;;;;;;22.76;43.51;99131.63;4948599;28;20473;-80
2023/06/18 05:34:45;;;;;;;11.70;10.50;;;;;;;22.94;42.97;99128.56;4948131;28;20452;-80
2023/06/18 05:37:10;;;;;;;13.87;9.20;;;;;;;23.15;42.37;99133.97;4946623;28;20214;-80
2023/06/18 05:39:37;;;;;;;9.90;9.20;;;;;;;23.30;42.18;99135.75;4949303;28;20740;-80
2023/06/18 05:42:03;;;;;;;10.50;9.50;;;;;;;23.47;42.09;99144.38;4951119;28;20699;-80
2023/06/18 05:44:29;;;;;;;10.17;9.00;;;;;;;23.62;41.94;99142.44;4952386;28;20432;-80
2023/06/18 05:46:54;;;;;;;10.87;9.70;;;;;;;23.84;41.63;99148.63;4950555;28;20474;-79
2023/06/18 05:49:21;;;;;;;10.93;9.93;;;;;;;24.04;41.62;99146.94;4950466;28;20206;-80
2023/06/18 05:51:46;;;;;;;9.67;8.70;;;;;;;24.27;41.06;99149.34;4955568;28;20204;-80
2023/06/18 05:54:12;;;;;;;9.80;8.60;;;;;;;24.51;40.52;99142.69;4951056;28;20847;-80
2023/06/18 05:56:37;;;;;;;10.03;9.13;;;;;;;24.75;39.69;99148.59;4969562;28;20217;-80
2023/06/18 05:59:02;;;;;;;9.30;8.40;;;;;;;24.97;39.14;99145.78;4951638;28;20219;-81
2023/06/18 06:01:34;;;;;;;9.10;8.20;;;;;;;25.21;38.37;99150.63;4950453;28;20267;-80
2023/06/18 06:04:01;;;;;;;9.10;8.20;;;;;;;25.49;37.52;99155.00;4952037;28;20467;-81
2023/06/18 06:06:27;;;;;;;9.97;9.07;;;;;;;25.85;37.14;99149.25;4950244;28;20493;-80
2023/06/18 06:08:53;;;;;;;9.37;8.37;;;;;;;26.21;35.99;99150.66;4948948;28;20721;-81
2023/06/18 06:11:19;;;;;;;8.20;7.40;;;;;;;26.49;35.55;99153.06;4944642;28;20478;-81
2023/06/18 06:13:45;;;;;;;8.40;7.60;;;;;;;26.85;34.86;99151.75;4964818;28;20233;-80
2023/06/18 06:16:11;;;;;;;7.73;7.03;;;;;;;27.19;34.04;99155.09;4949497;28;20503;-81
2023/06/18 06:18:37;;;;;;;7.93;7.20;;;;;;;27.48;32.96;99148.28;4948642;28;20664;-80
2023/06/18 06:23:44;;;;;;;9.93;8.27;;;;;;;27.79;32.21;99155.53;5057858;23;20236;-83
2023/06/18 06:26:09;;;;;;;8.97;8.07;;;;;;;27.96;31.98;99162.03;4953029;28;20461;-79
2023/06/18 06:28:35;;;;;;;7.77;7.00;;;;;;;28.06;31.29;99153.44;4939301;29;20329;-81
2023/06/18 06:31:01;;;;;;;8.17;7.40;;;;;;;28.28;30.93;99153.03;4937672;29;20267;-82
2023/06/18 06:33:26;;;;;;;10.30;7.80;;;;;;;28.56;30.54;99152.53;4938703;29;20728;-81
2023/06/18 06:35:52;;;;;;;7.87;7.07;;;;;;;28.88;30.12;99153.16;4931495;29;20207;-81
2023/06/18 06:38:17;;;;;;;8.07;7.43;;;;;;;29.20;29.54;99161.09;4922142;29;20214;-81
2023/06/18 06:40:43;;;;;;;9.13;8.17;;;;;;;29.47;28.80;99151.53;4942401;29;20300;-81
2023/06/18 06:43:09;;;;;;;9.07;8.20;;;;;;;29.59;28.28;99148.00;4940213;29;20211;-84
2023/06/18 06:45:48;;;;;;;8.17;7.50;;;;;;;29.73;28.08;99144.91;4925252;29;20450;-82
2023/06/18 06:48:40;;;;;;;8.27;7.47;;;;;;;29.97;27.70;99144.88;4914697;29;20492;-79
2023/06/18 06:51:25;;;;;;;7.77;7.13;;;;;;;30.16;27.13;99140.19;4917867;29;20445;-79
2023/06/18 06:53:57;;;;;;;10.80;8.80;;;;;;;30.29;27.26;99152.69;4926910;29;20510;-82
2023/06/18 06:56:23;;;;;;;9.33;7.70;;;;;;;30.52;26.61;99152.66;4923823;29;20457;-81
2023/06/18 06:58:50;;;;;;;8.30;7.60;;;;;;;30.79;26.54;99152.94;4925337;29;20260;-84
2023/06/18 07:01:16;;;;;;;8.30;6.90;;;;;;;30.87;26.04;99146.34;4939282;29;20516;-81
2023/06/18 07:03:41;;;;;;;8.73;7.23;;;;;;;30.94;25.62;99138.88;4942694;29;20445;-81
2023/06/18 07:06:07;;;;;;;7.80;6.93;;;;;;;30.97;25.60;99143.81;4940155;29;20191;-84
2023/06/18 07:08:32;;;;;;;8.90;8.00;;;;;;;30.80;25.43;99137.50;4936291;29;20243;-81
2023/06/18 07:10:57;;;;;;;7.17;6.47;;;;;;;30.83;25.33;99145.16;4941674;29;20688;-81
2023/06/18 07:13:25;;;;;;;8.60;7.87;;;;;;;31.00;25.66;99151.50;4939175;29;20196;-85
2023/06/18 07:15:51;;;;;;;7.80;7.10;;;;;;;31.31;25.35;99146.63;4938833;29;20233;-82
2023/06/18 07:18:16;;;;;;;8.03;6.67;;;;;;;31.61;24.91;99131.94;4937325;29;20503;-81
2023/06/18 07:20:42;;;;;;;11.33;8.10;;;;;;;31.69;24.68;99137.78;4939150;29;20226;-84
2023/06/18 07:23:07;;;;;;;9.23;7.57;;;;;;;31.75;24.99;99141.41;4936826;29;20452;-81
2023/06/18 07:28:15;;;;;;;6.80;6.20;;;;;;;32.01;24.20;99133.69;5548455;23;20324;-81
2023/06/18 07:30:41;;;;;;;7.77;7.10;;;;;;;32.10;23.79;99134.91;4995606;28;20502;-83
2023/06/18 07:33:06;;;;;;;9.50;7.70;;;;;;;32.22;23.96;99127.47;4996986;28;20489;-80
2023/06/18 07:35:31;;;;;;;7.30;6.70;;;;;;;32.28;23.82;99131.88;4999806;28;20188;-81
2023/06/18 07:37:57;;;;;;;11.90;7.10;;;;;;;32.12;23.82;99138.19;4998562;28;20271;-81
2023/06/18 07:40:22;;;;;;;7.77;6.40;;;;;;;32.18;23.71;99139.91;4997328;28;20195;-83
2023/06/18 07:42:47;;;;;;;7.63;6.87;;;;;;;32.39;23.50;99132.84;4997049;28;20229;-82
2023/06/18 07:45:13;;;;;;;7.67;6.97;;;;;;;32.63;23.60;99130.75;5000161;28;20212;-81
2023/06/18 07:47:38;;;;;;;8.07;7.30;;;;;;;32.90;23.17;99127.25;5001420;28;20196;-81
2023/06/18 07:50:04;;;;;;;7.20;6.67;;;;;;;33.00;22.49;99124.59;5000498;28;20277;-81
2023/06/18 07:52:30;;;;;;;7.03;6.43;;;;;;;33.06;22.15;99126.34;4998826;28;20294;-83
2023/06/18 07:54:55;;;;;;;7.97;7.27;;;;;;;33.01;22.15;99118.94;5001562;28;20518;-81
2023/06/18 07:57:21;;;;;;;7.70;7.00;;;;;;;32.95;21.83;99124.56;4999967;28;20209;-82
2023/06/18 07:59:47;;;;;;;6.90;6.20;;;;;;;33.02;21.80;99123.31;5001373;28;20622;-84
2023/06/18 08:02:13;;;;;;;7.43;6.63;;;;;;;33.21;21.45;99120.22;5001324;28;20545;-83
2023/06/18 08:04:38;;;;;;;7.97;7.27;;;;;;;33.33;21.15;99118.16;5001173;28;20545;-85
2023/06/18 08:07:04;;;;;;;8.30;7.60;;;;;;;33.36;21.25;99119.56;4981631;28;20215;-81
2023/06/18 08:09:30;;;;;;;7.33;6.73;;;;;;;33.40;21.03;99117.94;4999593;28;20557;-81
2023/06/18 08:11:55;;;;;;;7.40;6.77;;;;;;;33.44;21.14;99116.34;5002269;28;20199;-81
2023/06/18 08:14:21;;;;;;;8.20;7.50;;;;;;;33.22;21.66;99114.53;5004819;28;20652;-82
2023/06/18 08:16:48;;;;;;;8.80;7.57;;;;;;;33.01;22.02;99108.06;5000144;28;20218;-84
2023/06/18 08:19:13;;;;;;;7.83;7.17;;;;;;;32.79;22.35;99118.13;4999691;28;20469;-81
2023/06/18 08:21:38;;;;;;;7.33;6.53;;;;;;;32.70;22.35;99114.22;5002503;28;20824;-81
2023/06/18 08:24:04;;;;;;;7.50;6.90;;;;;;;32.71;22.72;99105.81;4998170;28;20204;-81
2023/06/18 08:26:30;;;;;;;8.07;7.10;;;;;;;32.76;22.83;99100.44;4990358;28;20192;-81
2023/06/18 08:28:55;;;;;;;7.63;7.03;;;;;;;32.93;22.54;99103.06;5004723;28;20231;-81
2023/06/18 08:31:21;;;;;;;7.40;6.70;;;;;;;33.12;22.29;99095.38;5003239;28;20559;-81
2023/06/18 08:33:48;;;;;;;10.17;7.27;;;;;;;33.20;22.35;99103.06;4998878;28;20206;-81
2023/06/18 08:36:14;;;;;;;8.60;7.80;;;;;;;33.18;22.43;99097.06;4998623;28;20505;-81
2023/06/18 08:38:39;;;;;;;8.37;7.60;;;;;;;33.23;22.23;99099.00;4998944;28;20454;-81
2023/06/18 08:41:05;;;;;;;8.60;6.60;;;;;;;33.12;22.19;99097.28;5000906;28;20199;-81
2023/06/18 08:43:37;;;;;;;7.67;7.07;;;;;;;32.92;22.43;99092.41;5002837;28;20223;-82
2023/06/18 08:46:14;;;;;;;8.00;7.27;;;;;;;32.66;22.71;99085.91;4999626;28;20518;-81
2023/06/18 08:48:47;;;;;;;8.27;7.53;;;;;;;32.43;23.04;99090.47;5001846;28;20576;-81
2023/06/18 08:51:15;;;;;;;8.20;7.20;;;;;;;32.32;23.31;99086.81;5000734;28;20471;-81
2023/06/18 08:53:41;;;;;;;8.20;6.30;;;;;;;32.37;23.00;99084.16;4997332;28;20839;-82
2023/06/18 08:56:08;;;;;;;8.83;6.90;;;;;;;32.21;22.97;99079.59;4999004;28;20470;-84
2023/06/18 08:58:42;;;;;;;8.60;6.63;;;;;;;32.09;23.55;99076.19;4991262;28;20458;-81
2023/06/18 09:01:07;;;;;;;7.27;6.60;;;;;;;32.11;23.81;99079.50;5001148;28;20471;-82
2023/06/18 09:03:35;;;;;;;7.73;7.03;;;;;;;32.14;23.63;99084.44;5002942;28;20955;-82
2023/06/18 09:06:01;;;;;;;9.07;7.30;;;;;;;32.28;22.58;99077.53;5000473;28;20623;-82
2023/06/18 09:08:27;;;;;;;6.60;6.00;;;;;;;32.28;22.77;99080.25;5002797;28;20466;-81
2023/06/18 09:10:54;;;;;;;6.87;6.27;;;;;;;32.45;22.23;99072.03;5000347;28;20903;-83
2023/06/18 09:13:20;;;;;;;7.60;7.00;;;;;;;32.78;22.07;99076.53;4997843;28;20504;-81
2023/06/18 09:15:45;;;;;;;7.10;6.43;;;;;;;33.02;21.91;99066.16;5003733;28;20454;-82
2023/06/18 09:18:10;;;;;;;6.17;5.57;;;;;;;33.02;21.42;99059.91;5003352;28;20196;-81
2023/06/18 09:20:37;;;;;;;6.97;6.27;;;;;;;32.99;21.63;99054.94;5000717;28;20192;-81
2023/06/18 09:23:08;;;;;;;7.10;6.00;;;;;;;33.04;21.49;99061.28;5003030;28;20652;-82
2023/06/18 09:25:34;;;;;;;7.23;6.37;;;;;;;33.19;21.43;99051.59;5002199;28;20501;-82
2023/06/18 09:28:00;;;;;;;8.10;6.90;;;;;;;33.38;21.47;99049.31;4995488;28;20472;-81
2023/06/18 09:30:26;;;;;;;6.53;6.03;;;;;;;33.45;21.38;99042.56;4981670;28;20250;-81
2023/06/18 09:32:53;;;;;;;5.40;5.00;;;;;;;33.57;21.58;99039.69;4981324;28;20446;-83
2023/06/18 09:35:19;;;;;;;7.20;6.50;;;;;;;33.66;21.36;99032.66;4980479;28;20194;-83
2023/06/18 09:37:45;;;;;;;6.97;6.27;;;;;;;33.68;21.58;99038.69;4987193;28;20543;-82
2023/06/18 09:40:18;;;;;;;6.33;5.83;;;;;;;33.77;21.33;99028.09;4982634;28;20465;-84
2023/06/18 09:42:44;;;;;;;7.07;6.07;;;;;;;33.83;21.13;99027.03;4982808;28;21000;-82
2023/06/18 09:45:11;;;;;;;5.50;5.10;;;;;;;33.98;21.24;99029.03;4981439;28;20453;-83
2023/06/18 09:47:41;;;;;;;6.97;5.60;;;;;;;34.18;21.32;99028.31;4983018;28;20444;-83
2023/06/18 09:50:09;;;;;;;7.80;7.10;;;;;;;34.33;20.72;99035.75;4982242;28;20474;-82
2023/06/18 09:52:44;;;;;;;7.37;6.77;;;;;;;34.27;20.60;99026.75;4968080;28;20442;-82
2023/06/18 09:55:28;;;;;;;6.50;5.80;;;;;;;34.38;20.52;99024.88;4984279;28;20463;-82
2023/06/18 10:00:35;;;;;;;7.40;6.37;;;;;;;34.62;20.46;99022.50;5373773;23;20521;-81
2023/06/18 10:03:06;;;;;;;6.30;5.73;;;;;;;34.74;20.15;99024.97;4960726;28;21051;-81
2023/06/18 10:05:31;;;;;;;6.43;5.93;;;;;;;34.78;19.92;99026.91;4964025;28;20195;-81
2023/06/18 10:07:58;;;;;;;7.57;6.90;;;;;;;34.77;19.49;99024.44;4962925;28;20458;-81
2023/06/18 10:10:25;;;;;;;6.67;6.07;;;;;;;34.78;20.00;99021.44;4960930;28;20332;-81
2023/06/18 10:12:55;;;;;;;7.27;6.57;;;;;;;34.84;19.46;99014.06;4958596;28;20444;-81
2023/06/18 10:15:25;;;;;;;6.43;5.93;;;;;;;34.87;19.56;99018.19;4964803;28;20508;-81
2023/06/18 10:17:54;;;;;;;5.17;4.77;;;;;;;34.86;19.23;99013.78;4962314;28;20450;-82
2023/06/18 10:20:23;;;;;;;5.87;5.37;;;;;;;34.90;18.95;99012.97;4966804;28;20465;-81
2023/06/18 10:22:54;;;;;;;6.60;6.00;;;;;;;34.93;19.10;99015.16;4962513;28;20461;-82
2023/06/18 10:25:20;;;;;;;6.80;6.20;;;;;;;35.00;19.13;99014.91;4966134;28;20455;-82
2023/06/18 10:27:48;;;;;;;6.90;5.80;;;;;;;35.06;19.12;99004.81;4963889;28;20616;-82
2023/06/18 10:30:14;;;;;;;5.77;5.30;;;;;;;35.06;18.80;98997.44;4959182;28;20997;-81
2023/06/18 10:32:42;;;;;;;6.37;5.77;;;;;;;35.03;18.58;99001.53;4967701;28;20469;-83
2023/06/18 10:35:09;;;;;;;7.00;6.40;;;;;;;34.93;18.55;98995.25;4960482;28;20442;-81
2023/06/18 10:37:36;;;;;;;6.67;6.07;;;;;;;34.92;18.63;98999.09;4945667;28;20198;-82
2023/06/18 10:40:03;;;;;;;6.30;5.80;;;;;;;34.91;18.08;98989.25;4958344;28;20457;-82
2023/06/18 10:42:32;;;;;;;5.73;5.30;;;;;;;35.06;18.03;98986.50;4957510;28;20450;-81
2023/06/18 10:44:59;;;;;;;6.00;5.50;;;;;;;35.27;17.76;98989.25;4951808;28;20453;-81
2023/06/18 10:47:28;;;;;;;6.40;5.80;;;;;;;35.51;17.41;98979.38;4960899;28;20456;-81
2023/06/18 10:50:00;;;;;;;5.73;5.23;;;;;;;35.68;17.47;98981.84;4957961;28;20486;-82
2023/06/18 10:52:26;;;;;;;6.77;6.17;;;;;;;35.81;16.89;98978.50;4959137;28;20456;-81
2023/06/18 10:54:55;;;;;;;5.80;5.30;;;;;;;35.72;17.20;98976.63;4961784;28;20448;-82
2023/06/18 10:57:30;;;;;;;5.70;5.20;;;;;;;35.54;17.13;98967.06;4955616;28;20528;-82
2023/06/18 10:59:58;;;;;;;6.53;5.90;;;;;;;35.45;17.48;98975.84;4959237;28;20557;-82
2023/06/18 11:02:35;;;;;;;6.43;5.93;;;;;;;35.44;17.69;98966.00;4959263;28;20466;-81
2023/06/18 11:05:01;;;;;;;6.17;5.37;;;;;;;35.46;17.76;98955.63;4960652;28;20450;-81
2023/06/18 11:07:27;;;;;;;5.40;5.00;;;;;;;35.45;17.86;98956.72;4961327;28;20458;-82
2023/06/18 11:09:52;;;;;;;6.17;5.67;;;;;;;35.35;17.74;98958.66;4967720;28;20924;-83
2023/06/18 11:12:23;;;;;;;6.00;5.50;;;;;;;35.15;17.67;98956.78;4959289;28;20510;-83
2023/06/18 11:15:16;;;;;;;6.50;5.47;;;;;;;34.94;17.50;98951.28;4960647;28;20230;-81
2023/06/18 11:17:48;;;;;;;7.10;6.47;;;;;;;34.76;17.88;98949.13;4957313;28;20471;-80
2023/06/18 11:20:14;;;;;;;5.67;5.23;;;;;;;34.77;18.00;98948.03;4953764;28;20453;-80
2023/06/18 11:22:41;;;;;;;6.67;6.07;;;;;;;34.85;18.07;98946.69;4957273;28;20456;-79
2023/06/18 11:25:08;;;;;;;7.07;6.37;;;;;;;35.00;18.32;98952.13;4955843;28;20509;-79
2023/06/18 11:27:34;;;;;;;6.50;5.70;;;;;;;35.09;18.04;98947.78;4957224;28;20470;-80
2023/06/18 11:30:00;;;;;;;7.37;6.67;;;;;;;35.05;18.19;98943.91;4955590;28;20485;-81
2023/06/18 11:32:26;;;;;;;6.00;5.50;;;;;;;35.04;18.10;98942.28;4955055;28;20479;-80
2023/06/18 11:34:56;;;;;;;7.83;6.80;;;;;;;35.00;18.32;98941.22;4955843;28;20430;-81
2023/06/18 11:37:24;;;;;;;6.20;5.60;;;;;;;34.99;18.25;98937.66;4955275;28;20491;-78